Time;durP1;ratioP1;P1;durP2;ratioP2;P2;SDS_P1;SDS_P2;PMS_P1;PMS_P2;Temp;Humidity;BMP_temperature;BMP_pressure;BME280_temperature;BME280_humidity;BME280_pressure;Samples;Min_cycle;Max_cycle;Signal;HPM_P1;HPM_P2
2024/01/21 00:01:04;;;;;;;;;;;2.80;53.40;;;0.91;59.03;102590.06;12249954;19;19923;-84
2024/01/21 00:05:06;;;;;;;;;;;2.80;53.50;;;0.95;59.28;102599.56;12251365;19;19921;-84
2024/01/21 00:09:07;;;;;;;;;;;2.70;53.40;;;0.92;59.16;102599.50;12248339;19;20552;-84
2024/01/21 00:13:08;;;;;;;;;;;2.70;53.40;;;0.67;59.21;102552.84;12252407;19;19922;-85
2024/01/21 00:17:11;;;;;;;;;;;2.80;53.50;;;0.86;59.08;102590.00;12249821;19;19923;-84
2024/01/21 00:21:12;;;;;;;;;;;2.60;53.40;;;0.85;59.19;102586.56;12248163;19;19922;-85
2024/01/21 00:25:14;;;;;;;;;;;2.60;53.70;;;0.60;59.23;102564.75;12249952;19;19923;-84
2024/01/21 00:29:16;;;;;;;;;;;2.60;53.40;;;0.75;59.25;102588.97;12252598;19;19943;-84
2024/01/21 00:33:20;;;;;;;;;;;2.80;53.50;;;0.70;59.21;102583.75;12249433;19;19922;-84
2024/01/21 00:37:21;;;;;;;;;;;2.50;53.30;;;0.68;59.11;102575.16;12248736;19;20342;-84
2024/01/21 00:41:23;;;;;;;;;;;2.50;53.30;;;0.60;59.25;102562.19;12247192;19;19914;-84
2024/01/21 00:45:28;;;;;;;;;;;2.40;53.30;;;0.63;59.00;102581.94;12245660;19;20345;-84
2024/01/21 00:49:31;;;;;;;;;;;2.40;53.30;;;0.65;59.09;102587.97;12244338;19;20377;-84
2024/01/21 00:53:32;;;;;;;;;;;2.40;53.40;;;0.64;59.32;102586.22;12246648;19;19991;-84
2024/01/21 00:57:34;;;;;;;;;;;2.40;53.40;;;0.37;59.00;102530.97;12244437;19;19915;-84
2024/01/21 01:01:38;;;;;;;;;;;2.50;53.40;;;0.47;59.23;102555.13;12249345;19;19943;-84
2024/01/21 01:05:39;;;;;;;;;;;2.40;53.40;;;0.44;59.23;102547.38;12248369;19;19962;-84
2024/01/21 01:09:41;;;;;;;;;;;2.30;53.30;;;0.30;59.08;102521.44;12247335;19;19910;-84
2024/01/21 01:13:43;;;;;;;;;;;2.30;53.60;;;0.53;59.30;102567.22;12247354;19;20237;-84
2024/01/21 01:17:47;;;;;;;;;;;2.20;53.20;;;0.38;59.18;102550.72;12246199;19;19922;-84
2024/01/21 01:21:49;;;;;;;;;;;2.30;53.20;;;0.36;59.13;102557.50;12248884;19;19915;-84
2024/01/21 01:25:50;;;;;;;;;;;2.40;53.30;;;0.33;59.04;102547.19;12246620;19;19919;-84
2024/01/21 01:29:52;;;;;;;;;;;2.50;53.40;;;0.25;58.97;102553.91;12247585;19;19966;-84
2024/01/21 01:33:53;;;;;;;;;;;2.30;53.10;;;0.17;58.71;102556.34;12246323;19;19930;-84
2024/01/21 01:37:54;;;;;;;;;;;2.10;52.90;;;0.02;58.87;102552.63;12245788;19;19911;-84
2024/01/21 01:41:56;;;;;;;;;;;1.90;52.70;;;-0.10;58.86;102540.44;12248192;19;19965;-84
2024/01/21 01:46:00;;;;;;;;;;;1.90;52.70;;;-0.21;58.94;102537.69;12250943;19;19998;-84
2024/01/21 01:50:02;;;;;;;;;;;1.80;52.70;;;-0.25;59.01;102536.75;12248973;19;19915;-84
2024/01/21 01:54:04;;;;;;;;;;;1.70;52.70;;;-0.13;58.90;102551.53;12249053;19;19950;-84
2024/01/21 01:58:06;;;;;;;;;;;1.90;52.90;;;-0.26;58.72;102534.16;12251251;19;19915;-84
2024/01/21 02:02:07;;;;;;;;;;;1.90;53.00;;;-0.28;58.69;102546.94;12260776;19;20291;-84
2024/01/21 02:06:08;;;;;;;;;;;1.50;52.80;;;-0.55;58.86;102506.22;12259419;19;19914;-84
2024/01/21 02:10:10;;;;;;;;;;;1.60;52.80;;;-0.32;58.82;102534.91;12260307;19;19921;-84
2024/01/21 02:14:12;;;;;;;;;;;1.40;52.90;;;-0.35;58.80;102550.25;12261704;19;19915;-84
2024/01/21 02:18:13;;;;;;;;;;;1.40;52.90;;;-0.46;58.89;102526.94;12257552;19;20293;-85
2024/01/21 02:22:15;;;;;;;;;;;1.40;52.90;;;-0.52;58.99;102510.56;12259287;19;19926;-84
2024/01/21 02:26:16;;;;;;;;;;;1.70;53.00;;;-0.55;58.85;102506.22;12259527;19;19956;-84
2024/01/21 02:30:18;;;;;;;;;;;1.30;52.90;;;-0.55;59.04;102516.50;12259262;19;19918;-84
2024/01/21 02:34:20;;;;;;;;;;;1.30;53.30;;;-0.77;59.09;102489.56;12260786;19;19914;-84
2024/01/21 02:38:21;;;;;;;;;;;1.30;53.00;;;-0.53;58.95;102519.97;12256083;19;19936;-84
2024/01/21 02:42:25;;;;;;;;;;;1.30;53.10;;;-0.76;58.88;102464.75;12255271;19;19919;-84
2024/01/21 02:46:27;;;;;;;;;;;1.30;53.10;;;-0.65;58.98;102483.78;12258577;19;19927;-84
2024/01/21 02:50:29;;;;;;;;;;;1.40;53.10;;;-0.55;59.05;102501.09;12254731;19;19972;-84
2024/01/21 02:54:30;;;;;;;;;;;1.30;53.10;;;-0.60;59.03;102496.72;12259372;19;19915;-84
2024/01/21 02:58:32;;;;;;;;;;;1.50;53.10;;;-0.75;58.98;102474.22;12254473;19;20381;-84
2024/01/21 03:02:33;;;;;;;;;;;1.20;53.00;;;-0.72;59.04;102487.09;12256376;19;19926;-84
2024/01/21 03:06:35;;;;;;;;;;;1.30;53.00;;;-0.70;59.06;102490.56;12254983;19;19922;-84
2024/01/21 03:10:36;;;;;;;;;;;1.20;53.00;;;-0.70;59.07;102488.00;12255761;19;19926;-84
2024/01/21 03:14:38;;;;;;;;;;;1.20;52.90;;;-0.74;59.00;102493.88;12257540;19;19930;-84
2024/01/21 03:18:39;;;;;;;;;;;1.20;52.90;;;-0.72;59.06;102503.34;12254113;19;19915;-84
2024/01/21 03:22:41;;;;;;;;;;;1.20;52.90;;;-0.79;59.05;102490.34;12257654;19;20325;-84
2024/01/21 03:26:43;;;;;;;;;;;1.20;52.90;;;-0.90;58.90;102482.44;12255024;19;19923;-84
2024/01/21 03:30:44;;;;;;;;;;;1.10;52.90;;;-1.00;58.92;102460.91;12254825;19;19911;-84
2024/01/21 03:34:46;;;;;;;;;;;1.40;53.00;;;-0.81;58.81;102499.72;12253968;19;19914;-84
2024/01/21 03:38:50;;;;;;;;;;;1.10;52.80;;;-0.79;58.92;102516.00;12250301;19;19922;-84
2024/01/21 03:42:52;;;;;;;;;;;1.10;52.80;;;-0.89;59.12;102494.44;12255542;19;19914;-84
2024/01/21 03:46:53;;;;;;;;;;;1.30;52.90;;;-0.88;59.01;102503.84;12252695;19;19965;-84
2024/01/21 03:50:54;;;;;;;;;;;1.10;52.80;;;-0.96;58.99;102496.00;12256191;19;19944;-84
2024/01/21 03:54:56;;;;;;;;;;;1.00;52.80;;;-0.89;59.09;102514.97;12254206;19;19911;-84
2024/01/21 03:58:57;;;;;;;;;;;0.90;52.70;;;-0.87;59.06;102525.22;12251114;19;19911;-84
2024/01/21 04:02:59;;;;;;;;;;;1.00;52.80;;;-0.87;59.13;102517.53;12255435;19;19930;-85
2024/01/21 04:07:00;;;;;;;;;;;1.20;52.90;;;-0.90;59.16;102511.50;12252885;19;19911;-84
2024/01/21 04:11:03;;;;;;;;;;;1.30;53.30;;;-0.86;59.11;102521.81;12254734;19;20689;-84
2024/01/21 04:15:05;;;;;;;;;;;1.00;52.90;;;-1.11;58.93;102477.72;12254839;19;20340;-84
2024/01/21 04:19:07;;;;;;;;;;;1.00;52.80;;;-1.06;58.95;102478.69;12250765;19;19922;-84
2024/01/21 04:23:08;;;;;;;;;;;1.00;52.80;;;-0.95;58.92;102495.16;12253537;19;19932;-84
2024/01/21 04:27:10;;;;;;;;;;;0.90;52.70;;;-1.09;58.93;102470.94;12251755;19;19978;-84
2024/01/21 04:31:11;;;;;;;;;;;1.10;52.80;;;-1.12;59.08;102470.88;12254648;19;19922;-84
2024/01/21 04:35:13;;;;;;;;;;;1.10;52.70;;;-1.06;59.04;102471.00;12252326;19;19927;-84
2024/01/21 04:39:19;;;;;;;;;;;0.90;52.70;;;-1.06;59.07;102465.88;12253231;19;19918;-84
2024/01/21 04:43:20;;;;;;;;;;;1.20;52.80;;;-1.11;58.81;102462.34;12252197;19;19926;-84
2024/01/21 04:47:23;;;;;;;;;;;0.80;52.60;;;-1.12;59.00;102458.91;12250610;19;19911;-84
2024/01/21 04:51:24;;;;;;;;;;;0.80;52.70;;;-1.03;58.96;102467.63;12254127;19;19922;-84
2024/01/21 04:55:26;;;;;;;;;;;1.00;52.60;;;-1.06;59.14;102465.88;12253915;19;19913;-84
2024/01/21 04:59:27;;;;;;;;;;;0.80;52.60;;;-1.24;59.06;102425.38;12251335;19;19943;-85
2024/01/21 05:03:29;;;;;;;;;;;0.80;52.60;;;-1.27;59.06;102429.53;12252136;19;20330;-84
2024/01/21 05:07:30;;;;;;;;;;;1.10;52.70;;;-1.04;58.99;102453.97;12250599;19;19918;-84
2024/01/21 05:11:32;;;;;;;;;;;0.80;52.70;;;-1.28;59.03;102415.88;12252831;19;19922;-84
2024/01/21 05:15:33;;;;;;;;;;;0.90;52.70;;;-1.02;59.13;102461.69;12245932;19;19938;-84
2024/01/21 05:19:35;;;;;;;;;;;0.90;52.70;;;-1.21;59.00;102429.69;12250828;19;19915;-85
2024/01/21 05:23:36;;;;;;;;;;;0.90;52.70;;;-1.09;59.09;102444.44;12251626;19;19915;-84
2024/01/21 05:27:38;;;;;;;;;;;0.90;52.70;;;-1.27;59.17;102419.28;12250889;19;19917;-85
2024/01/21 05:31:39;;;;;;;;;;;0.90;52.70;;;-1.02;59.06;102467.69;12249961;19;19911;-84
2024/01/21 05:35:41;;;;;;;;;;;0.90;52.70;;;-0.93;59.05;102469.56;12250354;19;19918;-84
2024/01/21 05:39:42;;;;;;;;;;;1.20;52.90;;;-1.15;58.96;102424.69;12250041;19;20330;-84
2024/01/21 05:43:44;;;;;;;;;;;1.10;52.80;;;-1.01;58.99;102445.47;12249842;19;19970;-84
2024/01/21 05:47:45;;;;;;;;;;;1.00;52.50;;;-0.95;59.03;102437.88;12241366;19;19911;-84
2024/01/21 05:51:47;;;;;;;;;;;1.20;52.70;;;-0.90;59.09;102447.41;12249416;19;19915;-84
2024/01/21 05:55:49;;;;;;;;;;;1.10;52.60;;;-0.88;59.16;102444.03;12247355;19;20546;-84
2024/01/21 05:59:50;;;;;;;;;;;1.30;52.90;;;-0.84;59.10;102449.22;12245407;19;19944;-84
2024/01/21 06:03:51;;;;;;;;;;;1.00;52.60;;;-0.95;59.12;102430.19;12245944;19;20395;-84
2024/01/21 06:07:53;;;;;;;;;;;1.10;52.70;;;-0.96;59.07;102424.22;12242201;19;19927;-84
2024/01/21 06:11:54;;;;;;;;;;;1.10;52.60;;;-0.83;58.98;102450.97;12238375;19;20303;-84
2024/01/21 06:15:55;;;;;;;;;;;1.30;52.70;;;-0.82;59.14;102439.00;12163209;19;19949;-84
2024/01/21 06:19:57;;;;;;;;;;;1.10;52.60;;;-0.77;59.09;102434.84;12143678;19;19926;-84
2024/01/21 06:23:58;;;;;;;;;;;1.10;52.50;;;-0.88;59.06;102403.84;12142296;19;19926;-85
2024/01/21 06:28:00;;;;;;;;;;;1.10;52.50;;;-0.83;59.04;102407.38;12136339;19;20724;-84
2024/01/21 06:32:01;;;;;;;;;;;1.50;52.70;;;-0.82;59.11;102413.34;12136668;19;20712;-84
2024/01/21 06:36:03;;;;;;;;;;;1.50;52.70;;;-0.73;59.15;102408.38;12133853;19;20712;-85
2024/01/21 06:40:05;;;;;;;;;;;1.20;52.50;;;-0.73;59.17;102411.84;12137191;19;19932;-85
2024/01/21 06:44:07;;;;;;;;;;;1.20;52.50;;;-0.76;59.06;102409.19;12139282;19;20013;-86
2024/01/21 06:48:08;;;;;;;;;;;1.20;52.60;;;-1.17;59.07;102336.63;12143524;19;19929;-85
2024/01/21 06:52:09;;;;;;;;;;;1.40;52.70;;;-0.85;59.05;102378.25;12146662;19;19926;-86
2024/01/21 06:56:11;;;;;;;;;;;1.20;52.60;;;-0.82;59.06;102401.41;12147459;19;19914;-85
2024/01/21 07:00:14;;;;;;;;;;;1.30;52.60;;;-0.78;59.03;102408.31;12143030;19;20022;-86
2024/01/21 07:04:18;;;;;;;;;;;1.30;52.50;;;-0.73;58.97;102409.28;12149966;19;19937;-86
2024/01/21 07:08:19;;;;;;;;;;;1.30;52.40;;;-0.69;59.11;102405.06;12153722;19;19923;-87
2024/01/21 07:12:21;;;;;;;;;;;1.50;52.40;;;-0.66;59.10;102412.81;12159725;19;19922;-88
2024/01/21 07:16:22;;;;;;;;;;;1.50;52.40;;;-0.72;58.96;102407.56;12158828;19;19930;-86
2024/01/21 07:20:24;;;;;;;;;;;1.30;52.40;;;-0.66;59.15;102415.38;12149633;19;19934;-89
2024/01/21 07:24:25;;;;;;;;;;;1.50;52.40;;;-0.61;58.98;102413.75;12157194;19;20356;-85
2024/01/21 07:28:27;;;;;;;;;;;1.30;52.30;;;-0.60;58.96;102399.22;12154497;19;20790;-86
2024/01/21 07:32:28;;;;;;;;;;;1.40;52.40;;;-0.55;59.04;102400.19;12151781;19;21073;-87
2024/01/21 07:36:30;;;;;;;;;;;1.40;52.30;;;-0.54;59.08;102395.09;12150437;19;19953;-86
2024/01/21 07:40:31;;;;;;;;;;;1.40;52.10;;;-0.54;59.16;102400.22;12148991;19;20417;-85
2024/01/21 07:44:33;;;;;;;;;;;1.40;52.10;;;-0.50;59.15;102396.00;12154985;19;20711;-86
2024/01/21 07:48:34;;;;;;;;;;;1.40;52.00;;;-0.47;59.15;102409.72;12150791;19;19951;-86
2024/01/21 07:52:37;;;;;;;;;;;1.70;52.00;;;-0.48;59.07;102392.63;12152249;19;19926;-86
2024/01/21 07:56:38;;;;;;;;;;;1.60;51.90;;;-0.42;59.13;102391.00;12149623;19;20267;-86
2024/01/21 08:00:40;;;;;;;;;;;1.50;51.90;;;-0.48;59.10;102373.81;12150639;19;19929;-89
2024/01/21 08:04:41;;;;;;;;;;;1.50;51.10;;;-0.45;59.10;102369.56;12148656;19;19925;-90
2024/01/21 08:08:43;;;;;;;;;;;1.60;51.70;;;-0.36;59.21;102383.41;12146611;19;19930;-86
2024/01/21 08:12:45;;;;;;;;;;;1.60;51.90;;;-0.35;59.22;102364.56;12148647;19;20316;-86
2024/01/21 08:16:46;;;;;;;;;;;1.60;51.80;;;-0.25;59.15;102366.47;12148211;19;19929;-88
2024/01/21 08:20:47;;;;;;;;;;;1.80;52.00;;;-0.14;59.07;102388.03;12145909;19;20239;-89
2024/01/21 08:24:51;;;;;;;;;;;1.70;51.90;;;-0.19;59.12;102363.13;12152096;19;20750;-86
2024/01/21 08:28:53;;;;;;;;;;;1.80;51.80;;;-0.23;59.09;102341.69;12147610;19;19976;-88
2024/01/21 08:32:55;;;;;;;;;;;1.80;51.60;;;-0.16;59.05;102330.69;12150186;19;20203;-86
2024/01/21 08:36:56;;;;;;;;;;;2.00;51.70;;;-0.02;59.12;102331.75;12149735;19;19934;-89
2024/01/21 08:40:58;;;;;;;;;;;2.10;51.70;;;0.08;59.07;102339.56;12146138;19;19942;-85
2024/01/21 08:44:59;;;;;;;;;;;2.10;51.80;;;0.12;59.19;102328.50;12149319;19;19927;-85
2024/01/21 08:49:01;;;;;;;;;;;2.00;52.10;;;0.05;59.07;102321.56;12145398;19;20376;-85
2024/01/21 08:53:04;;;;;;;;;;;2.10;51.40;;;-0.04;59.14;102288.91;12146171;19;19914;-85
2024/01/21 08:57:06;;;;;;;;;;;2.10;51.60;;;0.30;59.17;102344.19;12143851;19;19927;-87
2024/01/21 09:01:08;;;;;;;;;;;2.20;51.70;;;0.36;59.16;102333.13;12139749;19;20663;-87
2024/01/21 09:05:10;;;;;;;;;;;2.20;51.10;;;0.31;59.09;102317.63;12144152;19;19919;-87
2024/01/21 09:09:11;;;;;;;;;;;2.30;51.20;;;0.39;59.13;102321.16;12141584;19;20195;-87
2024/01/21 09:13:13;;;;;;;;;;;2.70;51.30;;;0.08;59.14;102257.38;12143961;19;19919;-88
2024/01/21 09:17:14;;;;;;;;;;;2.40;51.30;;;0.58;59.05;102341.97;12143523;19;20700;-87
2024/01/21 09:21:17;;;;;;;;;;;2.80;51.60;;;0.66;59.17;102333.47;12141133;19;20477;-88
2024/01/21 09:25:18;;;;;;;;;;;2.60;51.30;;;0.51;59.07;102286.16;12143292;19;20526;-88
2024/01/21 09:29:19;;;;;;;;;;;2.60;51.30;;;0.75;59.06;102319.88;12144205;19;20315;-88
2024/01/21 09:33:21;;;;;;;;;;;2.70;50.90;;;0.75;59.23;102298.44;12143539;19;19951;-88
2024/01/21 09:37:22;;;;;;;;;;;2.80;50.30;;;0.90;59.01;102314.03;12143227;19;20225;-88
2024/01/21 09:41:37;;;;;;;;;;;3.10;51.20;;;0.88;58.99;102303.72;12137604;19;19926;-88
2024/01/21 09:45:42;;;;;;;;;;;2.90;50.90;;;0.91;58.92;102294.31;12139715;19;19923;-88
2024/01/21 09:49:45;;;;;;;;;;;3.00;51.00;;;1.04;59.01;102311.59;12143781;19;19941;-87
2024/01/21 09:53:47;;;;;;;;;;;3.00;51.10;;;0.90;58.94;102274.59;12140742;19;20311;-88
2024/01/21 09:57:50;;;;;;;;;;;3.10;51.40;;;1.04;59.00;102289.31;12139468;19;19926;-88
2024/01/21 10:01:51;;;;;;;;;;;3.10;51.10;;;1.24;58.91;102281.78;12138180;19;19930;-88
2024/01/21 10:05:53;;;;;;;;;;;3.20;50.80;;;1.27;59.14;102274.09;12139428;19;19930;-88
2024/01/21 10:09:56;;;;;;;;;;;3.30;50.90;;;1.41;59.04;102271.63;12138420;19;20724;-89
2024/01/21 10:13:57;;;;;;;;;;;3.30;51.30;;;1.47;58.99;102261.38;12139334;19;19930;-88
2024/01/21 10:17:58;;;;;;;;;;;3.40;51.40;;;1.51;59.05;102246.78;12140797;19;20291;-89
2024/01/21 10:22:06;;;;;;;;;;;3.40;50.30;;;1.65;59.02;102245.19;12154913;19;19922;-89
2024/01/21 10:26:08;;;;;;;;;;;3.50;50.40;;;1.43;58.97;102181.53;12153879;19;19926;-90
2024/01/21 10:30:12;;;;;;;;;;;3.60;49.90;;;1.75;58.88;102220.34;12154661;19;19927;-88
2024/01/21 10:34:13;;;;;;;;;;;3.70;49.60;;;1.84;58.95;102215.25;12154154;19;20322;-88
2024/01/21 10:38:14;;;;;;;;;;;3.70;49.80;;;1.89;58.96;102212.69;12140618;19;19918;-89
2024/01/21 10:42:16;;;;;;;;;;;3.80;49.40;;;1.94;58.80;102185.22;12152980;19;20107;-88
2024/01/21 10:46:18;;;;;;;;;;;3.80;46.70;;;2.02;58.94;102195.56;12226642;19;19910;-88
2024/01/21 10:50:21;;;;;;;;;;;3.90;48.70;;;2.12;58.84;102198.19;12248823;19;19931;-88
2024/01/21 10:54:24;;;;;;;;;;;4.00;49.20;;;2.10;58.89;102205.03;12254499;19;20334;-88
2024/01/21 10:58:26;;;;;;;;;;;4.00;49.80;;;2.16;58.89;102205.09;12252536;19;19939;-89
2024/01/21 11:02:30;;;;;;;;;;;4.10;50.00;;;2.10;58.60;102166.41;12252318;19;19949;-87
2024/01/21 11:06:32;;;;;;;;;;;4.40;49.70;;;2.20;58.79;102173.31;12254928;19;19919;-87
2024/01/21 11:10:37;;;;;;;;;;;4.40;48.90;;;2.43;58.77;102208.59;12256758;19;19933;-88
2024/01/21 11:14:39;;;;;;;;;;;4.30;46.90;;;2.49;58.73;102220.66;12252436;19;19922;-87
2024/01/21 11:18:44;;;;;;;;;;;4.60;49.10;;;2.45;58.70;102199.13;12253975;19;19939;-86
2024/01/21 11:22:45;;;;;;;;;;;4.50;49.70;;;2.59;58.69;102201.75;12256513;19;20336;-87
2024/01/21 11:26:47;;;;;;;;;;;4.50;49.10;;;2.68;58.67;102185.44;12257978;19;19915;-87
2024/01/21 11:30:53;;;;;;;;;;;4.50;49.00;;;2.43;58.52;102124.41;12256599;19;20357;-88
2024/01/21 11:35:17;;;;;;;;;;;4.60;49.10;;;2.84;58.63;102176.84;12256907;19;19924;-87
2024/01/21 11:39:21;;;;;;;;;;;4.70;49.60;;;2.82;58.71;102158.78;12257053;19;19931;-86
2024/01/21 11:43:23;;;;;;;;;;;4.70;49.40;;;2.84;58.71;102145.91;12259247;19;19919;-86
2024/01/21 11:47:24;;;;;;;;;;;4.80;49.10;;;2.99;58.62;102143.28;12254540;19;20290;-87
2024/01/21 11:51:27;;;;;;;;;;;4.90;49.40;;;3.09;58.59;102146.75;12258872;19;20366;-87
2024/01/21 11:55:28;;;;;;;;;;;4.90;49.20;;;3.11;58.50;102134.69;12257139;19;19914;-87
2024/01/21 11:59:31;;;;;;;;;;;5.00;48.30;;;3.21;58.49;102132.94;12257400;19;19922;-87
2024/01/21 12:03:32;;;;;;;;;;;5.00;45.70;;;3.32;58.35;102115.69;12255450;19;19915;-87
2024/01/21 12:07:34;;;;;;;;;;;5.10;47.30;;;3.31;58.48;102088.19;12255036;19;19947;-87
2024/01/21 12:11:36;;;;;;;;;;;5.40;48.40;;;2.97;58.49;101995.41;12256073;19;20254;-87
2024/01/21 12:15:38;;;;;;;;;;;5.20;48.80;;;3.44;58.50;102045.97;12255428;19;19914;-87
2024/01/21 12:19:39;;;;;;;;;;;5.60;48.60;;;3.57;58.39;102027.84;12253397;19;19978;-86
2024/01/21 12:23:46;;;;;;;;;;;5.50;48.10;;;3.54;58.44;102011.50;12256680;19;19922;-87
2024/01/21 12:27:54;;;;;;;;;;;5.40;47.10;;;3.66;58.29;101994.19;12256086;19;19922;-89
2024/01/21 12:31:56;;;;;;;;;;;5.50;46.50;;;3.62;58.21;101974.41;12254116;19;19957;-86
2024/01/21 12:35:57;;;;;;;;;;;5.50;45.60;;;3.76;58.24;101980.38;12253479;19;19915;-90
2024/01/21 12:40:00;;;;;;;;;;;5.60;47.60;;;3.64;58.46;101945.13;12248056;19;19919;-88
2024/01/21 12:44:02;;;;;;;;;;;5.70;46.60;;;3.90;58.42;101969.94;12250579;19;19992;-88
2024/01/21 12:48:04;;;;;;;;;;;5.70;47.50;;;3.85;58.13;101969.97;12251101;19;20254;-88
2024/01/21 12:52:06;;;;;;;;;;;5.70;44.60;;;3.98;58.16;101978.47;12250029;19;19957;-87
2024/01/21 12:56:07;;;;;;;;;;;5.80;46.20;;;3.82;58.07;101935.53;12250163;19;20274;-88
2024/01/21 13:00:09;;;;;;;;;;;5.90;47.30;;;4.00;57.96;101945.75;12248070;19;19947;-87
2024/01/21 13:04:11;;;;;;;;;;;5.90;46.90;;;3.95;58.02;101932.00;12250618;19;19915;-88
2024/01/21 13:08:13;;;;;;;;;;;6.00;47.40;;;4.08;58.00;101963.75;12250569;19;20344;-88
2024/01/21 13:12:15;;;;;;;;;;;6.20;47.90;;;3.87;57.88;101882.09;12251368;19;19914;-87
2024/01/21 13:16:17;;;;;;;;;;;6.10;45.70;;;3.95;57.99;101893.22;12248780;19;19979;-88
2024/01/21 13:20:18;;;;;;;;;;;6.20;47.10;;;4.03;57.90;101908.69;12249590;19;19919;-88
2024/01/21 13:24:20;;;;;;;;;;;6.10;46.90;;;3.85;57.87;101861.44;12247332;19;19923;-88
2024/01/21 13:32:23;;;;;;;;;;;6.20;46.30;;;4.12;57.96;101825.88;12249486;19;20330;-88
2024/01/21 13:36:25;;;;;;;;;;;6.30;48.30;;;4.48;57.98;101844.41;12249846;19;19933;-88
2024/01/21 13:40:26;;;;;;;;;;;6.30;43.80;;;4.46;57.58;101928.94;12250015;19;19922;-88
2024/01/21 13:44:30;;;;;;;;;;;6.30;46.20;;;4.51;57.60;101935.78;12250894;19;19939;-88
2024/01/21 13:48:32;;;;;;;;;;;6.30;46.00;;;4.40;57.75;101880.69;12245542;19;19919;-88
2024/01/21 13:52:33;;;;;;;;;;;6.30;44.00;;;4.51;57.68;101872.81;12250348;19;19911;-88
2024/01/21 13:56:35;;;;;;;;;;;6.40;46.50;;;4.60;57.54;101862.38;12256555;19;19926;-87
2024/01/21 14:00:36;;;;;;;;;;;6.30;45.20;;;4.64;57.51;101897.69;12261043;19;20362;-87
2024/01/21 14:04:38;;;;;;;;;;;6.60;43.50;;;4.50;57.37;101853.88;12259433;19;19943;-87
2024/01/21 14:08:40;;;;;;;;;;;6.40;44.80;;;4.72;57.54;101887.25;12255198;19;20285;-88
2024/01/21 14:12:42;;;;;;;;;;;6.50;45.50;;;4.60;57.42;101858.06;12255148;19;19923;-87
2024/01/21 14:16:43;;;;;;;;;;;6.50;46.00;;;4.85;57.36;101883.63;12255625;19;20342;-87
2024/01/21 14:20:45;;;;;;;;;;;6.50;46.50;;;4.86;57.40;101860.34;12255035;19;19922;-86
2024/01/21 14:24:49;;;;;;;;;;;6.60;46.00;;;4.62;57.53;101822.69;12257425;19;19947;-87
2024/01/21 14:28:51;;;;;;;;;;;6.60;45.20;;;4.83;57.22;101862.97;12251435;19;19929;-86
2024/01/21 14:32:52;;;;;;;;;;;6.60;45.10;;;4.84;57.36;101882.78;12256595;19;19943;-87
2024/01/21 14:36:54;;;;;;;;;;;6.60;45.80;;;4.84;57.40;101890.53;12254491;19;19911;-87
2024/01/21 14:40:57;;;;;;;;;;;6.70;46.90;;;4.90;57.44;101899.97;12253405;19;19910;-86
2024/01/21 14:44:58;;;;;;;;;;;6.60;46.30;;;4.92;57.22;101905.97;12255411;19;19955;-86
2024/01/21 14:49:00;;;;;;;;;;;6.60;47.40;;;4.83;57.28;101909.53;12254255;19;19922;-87
2024/01/21 14:53:01;;;;;;;;;;;6.90;47.90;;;4.80;57.33;101919.91;12256468;19;20247;-86
2024/01/21 14:57:04;;;;;;;;;;;6.70;47.30;;;4.75;57.37;101898.44;12257223;19;19923;-86
2024/01/21 15:01:06;;;;;;;;;;;6.60;47.10;;;4.64;57.33;101889.91;12255839;19;19918;-86
2024/01/21 15:05:07;;;;;;;;;;;6.60;48.00;;;4.84;57.31;101908.66;12255463;19;19939;-86
2024/01/21 15:09:09;;;;;;;;;;;6.60;48.40;;;4.82;57.12;101905.22;12254994;19;19923;-86
2024/01/21 15:13:21;;;;;;;;;;;6.60;48.60;;;4.72;57.29;101877.75;12257143;19;19931;-86
2024/01/21 15:17:22;;;;;;;;;;;6.60;48.40;;;4.62;57.09;101855.47;12251913;19;19914;-87
2024/01/21 15:21:24;;;;;;;;;;;6.50;48.10;;;4.68;57.12;101864.88;12243812;19;19911;-87
2024/01/21 15:25:28;;;;;;;;;;;6.50;48.60;;;4.66;57.27;101857.13;12254856;19;19915;-86
2024/01/21 15:29:29;;;;;;;;;;;6.50;48.90;;;4.70;57.19;101863.13;12254215;19;19915;-87
2024/01/21 15:33:31;;;;;;;;;;;6.60;47.70;;;4.74;57.20;101876.00;12254370;19;20272;-87
2024/01/21 15:37:32;;;;;;;;;;;6.50;48.50;;;4.71;57.21;101878.63;12250471;19;19922;-86
2024/01/21 15:41:34;;;;;;;;;;;6.40;48.20;;;4.49;57.07;101830.63;12250070;19;19961;-87
2024/01/21 15:45:35;;;;;;;;;;;6.50;48.40;;;4.82;57.26;101894.88;12251348;19;19926;-87
2024/01/21 15:49:38;;;;;;;;;;;6.50;48.40;;;4.76;56.98;101874.25;12248971;19;19923;-87
2024/01/21 15:53:39;;;;;;;;;;;6.50;48.70;;;4.37;57.17;101787.66;12252823;19;20352;-86
2024/01/21 15:57:41;;;;;;;;;;;6.60;47.50;;;4.88;57.17;101876.66;12248326;19;19923;-86
2024/01/21 16:01:42;;;;;;;;;;;6.60;48.70;;;4.92;57.09;101907.72;12248493;19;19922;-87
2024/01/21 16:05:44;;;;;;;;;;;6.60;48.60;;;4.87;57.13;101895.69;12247778;19;19933;-87
2024/01/21 16:09:46;;;;;;;;;;;6.70;48.70;;;4.89;56.96;101874.97;12246892;19;20258;-88
2024/01/21 16:13:47;;;;;;;;;;;6.70;49.00;;;5.02;57.07;101893.75;12245860;19;20504;-87
2024/01/21 16:17:49;;;;;;;;;;;6.70;48.80;;;4.97;57.10;101870.53;12244779;19;19934;-87
2024/01/21 16:21:52;;;;;;;;;;;6.70;48.00;;;4.98;57.12;101868.81;12246219;19;19947;-88
2024/01/21 16:25:57;;;;;;;;;;;6.70;49.00;;;4.92;56.86;101861.97;12242693;19;20330;-89
2024/01/21 16:29:59;;;;;;;;;;;6.80;49.00;;;4.78;57.06;101841.47;12244596;19;19938;-88
2024/01/21 16:34:00;;;;;;;;;;;6.70;49.30;;;4.94;57.01;101877.47;12247646;19;19962;-88
2024/01/21 16:38:02;;;;;;;;;;;6.70;49.40;;;4.70;56.87;101838.13;12244410;19;19926;-88
2024/01/21 16:42:04;;;;;;;;;;;6.70;49.10;;;4.83;56.99;101855.19;12241807;19;19931;-88
2024/01/21 16:46:06;;;;;;;;;;;6.70;49.00;;;4.90;56.79;101873.22;12246291;19;19936;-88
2024/01/21 16:50:09;;;;;;;;;;;6.70;48.90;;;4.99;56.99;101886.03;12246917;19;20298;-88
2024/01/21 16:54:12;;;;;;;;;;;6.70;49.30;;;4.91;56.95;101877.50;12248281;19;19978;-87
2024/01/21 16:58:13;;;;;;;;;;;6.70;49.20;;;4.88;56.85;101874.09;12242587;19;19919;-88
2024/01/21 17:02:18;;;;;;;;;;;6.70;49.70;;;4.94;56.90;101872.28;12248091;19;20362;-88
2024/01/21 17:06:20;;;;;;;;;;;6.70;49.30;;;4.90;57.01;101850.78;12243988;19;19954;-88
2024/01/21 17:10:35;;;;;;;;;;;6.70;49.50;;;4.83;57.02;101841.38;12247987;19;20342;-88
2024/01/21 17:14:36;;;;;;;;;;;6.60;49.20;;;4.90;56.77;101857.69;12249736;19;19922;-88
2024/01/21 17:18:47;;;;;;;;;;;6.60;49.60;;;4.96;56.83;101880.91;12249619;19;19943;-90
2024/01/21 17:22:49;;;;;;;;;;;6.60;49.70;;;4.82;57.01;101858.66;12250377;19;19926;-89
2024/01/21 17:26:54;;;;;;;;;;;6.60;49.40;;;4.84;56.70;101872.44;12247668;19;19918;-89
2024/01/21 17:30:56;;;;;;;;;;;6.80;48.70;;;4.98;56.78;101884.34;12247355;19;19957;-90
2024/01/21 17:34:57;;;;;;;;;;;6.60;49.70;;;4.92;56.83;101868.91;12248660;19;19919;-86
2024/01/21 17:38:59;;;;;;;;;;;6.60;49.50;;;4.98;57.03;101889.50;12244490;19;19923;-87
2024/01/21 17:43:02;;;;;;;;;;;6.90;49.70;;;5.03;57.03;101904.09;12247495;19;19947;-87
2024/01/21 17:47:03;;;;;;;;;;;6.70;49.50;;;4.75;56.94;101862.22;12249852;19;19931;-87
2024/01/21 17:51:05;;;;;;;;;;;6.70;49.60;;;5.04;56.75;101910.13;12249496;19;20340;-87
2024/01/21 17:55:06;;;;;;;;;;;6.70;49.90;;;4.72;56.82;101856.19;12244521;19;19915;-87
2024/01/21 17:59:08;;;;;;;;;;;6.70;49.30;;;4.87;56.83;101866.34;12243597;19;19939;-88
2024/01/21 18:03:09;;;;;;;;;;;6.70;49.20;;;4.98;56.94;101879.16;12247970;19;19917;-87
2024/01/21 18:07:11;;;;;;;;;;;6.70;48.40;;;4.72;56.70;101826.00;12245808;19;19919;-87
2024/01/21 18:11:12;;;;;;;;;;;6.70;49.70;;;5.04;56.86;101882.50;12245616;19;19925;-87
2024/01/21 18:15:13;;;;;;;;;;;6.70;48.80;;;5.05;56.69;101880.78;12246853;19;20361;-87
2024/01/21 18:19:16;;;;;;;;;;;6.80;49.60;;;5.01;56.91;101869.59;12241725;19;19918;-87
2024/01/21 18:23:17;;;;;;;;;;;6.80;49.40;;;4.78;57.00;101825.06;12246559;19;19923;-87
2024/01/21 18:27:19;;;;;;;;;;;6.80;49.70;;;5.07;56.88;101842.78;12242091;19;19939;-88
2024/01/21 18:31:21;;;;;;;;;;;7.00;50.10;;;5.16;56.81;101853.03;12241566;19;19929;-88